Saint Pete Beach, Florida
Current Conditions -  °F | °C
As of 1:53 PM on Tuesday 21 Oct 2014 (Local Time) from KSPG Reporting Station
Clear Clear  
Wind Chill: 81°   Ceiling: Unl
Heat Index: 83°   Visibility: 10mi
Dew Point: 65°   Wind: 6mph
Humidity: 58%   Direction: 40°NE
Pressure: 29.92"   Gusts: NA
Location:  27.7562°N, 82.7184°W
Report Text: KSPG 211753Z 04005KT 10SM CLR 27/18 A2992 RMK AO2 SLP131 T02720183 10278 20233 58014
Loading
Personal Weather Stations






























Interactive Weather Map
Tropical Storm Tracking
New forecast layout! Learn more

10-Day Weather Forecast

Advertisements
Track Severe Weather on mobile